createdAt,value
2018-09-10T00:00:14.441Z,23.26
2018-09-10T00:00:46.041Z,23.24
2018-09-10T00:01:17.627Z,23.25
2018-09-10T00:01:49.225Z,23.25
2018-09-10T00:02:20.862Z,23.24
2018-09-10T00:02:52.451Z,23.23
2018-09-10T00:03:24.024Z,23.23
2018-09-10T00:03:55.607Z,23.23
2018-09-10T00:04:27.184Z,23.24
2018-09-10T00:04:58.769Z,23.24
2018-09-10T00:05:30.355Z,23.24
2018-09-10T00:06:01.953Z,23.24
2018-09-10T00:06:33.598Z,23.23
2018-09-10T00:07:05.183Z,23.22
2018-09-10T00:07:36.772Z,23.23
2018-09-10T00:08:08.359Z,23.23
2018-09-10T00:08:39.942Z,23.23
2018-09-10T00:09:11.520Z,23.23
2018-09-10T00:09:43.108Z,23.23
2018-09-10T00:10:14.682Z,23.22
2018-09-10T00:10:46.271Z,23.23
2018-09-10T00:11:17.870Z,23.23
2018-09-10T00:11:49.521Z,23.22
2018-09-10T00:12:21.098Z,23.23
2018-09-10T00:12:52.693Z,23.24
2018-09-10T00:13:24.289Z,23.22
2018-09-10T00:13:55.889Z,23.24
2018-09-10T00:14:27.478Z,23.24
2018-09-10T00:14:59.059Z,23.23
2018-09-10T00:15:30.643Z,23.23
2018-09-10T00:16:02.230Z,23.22
2018-09-10T00:16:33.830Z,23.21
2018-09-10T00:17:05.420Z,23.23
2018-09-10T00:17:37.007Z,23.22
2018-09-10T00:18:08.613Z,23.22
2018-09-10T00:18:40.239Z,23.23
2018-09-10T00:19:11.822Z,23.24
2018-09-10T00:19:43.398Z,23.24
2018-09-10T00:20:14.993Z,23.24
2018-09-10T00:20:46.579Z,23.22
2018-09-10T00:21:18.173Z,23.24
2018-09-10T00:21:49.775Z,23.24
2018-09-10T00:22:21.358Z,23.23
2018-09-10T00:22:52.957Z,23.24
2018-09-10T00:23:24.946Z,23.23
2018-09-10T00:23:56.523Z,23.23
2018-09-10T00:24:28.107Z,23.24
2018-09-10T00:24:59.701Z,23.25
2018-09-10T00:25:31.286Z,23.26
2018-09-10T00:26:02.871Z,23.27
2018-09-10T00:26:34.451Z,23.30
2018-09-10T00:27:06.038Z,23.30
2018-09-10T00:27:37.632Z,23.32
2018-09-10T00:28:09.201Z,23.34
2018-09-10T00:28:40.833Z,23.35
2018-09-10T00:29:12.405Z,23.38
2018-09-10T00:29:44.267Z,23.40
2018-09-10T00:30:16.300Z,23.42
2018-09-10T00:30:47.918Z,23.43
2018-09-10T00:31:19.503Z,23.44
2018-09-10T00:31:51.085Z,23.42
2018-09-10T00:32:22.689Z,23.44
2018-09-10T00:32:54.713Z,23.44
2018-09-10T00:33:26.639Z,23.44
2018-09-10T00:33:58.671Z,23.43
2018-09-10T00:34:30.265Z,23.44
2018-09-10T00:35:01.878Z,23.42
2018-09-10T00:35:33.479Z,23.42
2018-09-10T00:36:05.059Z,23.42
2018-09-10T00:36:36.696Z,23.41
2018-09-10T00:37:08.294Z,23.41
2018-09-10T00:37:39.879Z,23.41
2018-09-10T00:38:11.481Z,23.40
2018-09-10T00:38:43.081Z,23.40
2018-09-10T00:39:14.658Z,23.40
2018-09-10T00:39:46.243Z,23.39
2018-09-10T00:40:17.824Z,23.40
2018-09-10T00:40:49.418Z,23.41
2018-09-10T00:41:21.006Z,23.41
2018-09-10T00:41:52.587Z,23.41
2018-09-10T00:42:24.178Z,23.41
2018-09-10T00:42:55.782Z,23.41
2018-09-10T00:43:27.372Z,23.42
2018-09-10T00:43:58.959Z,23.41
2018-09-10T00:44:30.571Z,23.41
2018-09-10T00:45:02.167Z,23.41
2018-09-10T00:45:33.772Z,23.41
2018-09-10T00:46:05.350Z,23.41
2018-09-10T00:46:36.942Z,23.41
2018-09-10T00:47:08.527Z,23.40
2018-09-10T00:47:40.112Z,23.40
2018-09-10T00:48:11.696Z,23.40
2018-09-10T00:48:43.293Z,23.40
2018-09-10T00:49:14.927Z,23.41
2018-09-10T00:49:46.524Z,23.40
2018-09-10T00:50:18.149Z,23.41
2018-09-10T00:50:49.741Z,23.41
2018-09-10T00:51:21.341Z,23.41
2018-09-10T00:51:52.927Z,23.41
2018-09-10T00:52:24.517Z,23.41
2018-09-10T00:52:56.113Z,23.40
2018-09-10T00:53:27.699Z,23.41
2018-09-10T00:53:59.302Z,23.41
2018-09-10T00:54:30.931Z,23.41
2018-09-10T00:55:02.512Z,23.40
2018-09-10T00:55:34.093Z,23.40
2018-09-10T00:56:05.694Z,23.40
2018-09-10T00:56:37.280Z,23.40
2018-09-10T00:57:08.867Z,23.42
2018-09-10T00:57:40.451Z,23.43
2018-09-10T00:58:12.039Z,23.43
2018-09-10T00:58:43.722Z,23.42
2018-09-10T00:59:15.301Z,23.42
2018-09-10T00:59:47.275Z,23.41
2018-09-10T01:00:19.098Z,23.40
2018-09-10T01:00:50.714Z,23.40
2018-09-10T01:01:22.299Z,23.39
2018-09-10T01:01:53.869Z,23.39
2018-09-10T01:02:25.437Z,23.39
2018-09-10T01:02:57.042Z,23.38
2018-09-10T01:03:28.627Z,23.37
2018-09-10T01:04:00.212Z,23.36
2018-09-10T01:04:31.815Z,23.34
2018-09-10T01:05:03.434Z,23.33
2018-09-10T01:05:35.049Z,23.33
2018-09-10T01:06:06.666Z,23.32
2018-09-10T01:06:38.261Z,23.32
2018-09-10T01:07:09.843Z,23.31
2018-09-10T01:07:41.513Z,23.31
2018-09-10T01:08:13.205Z,23.30
2018-09-10T01:08:44.806Z,23.30
2018-09-10T01:09:16.479Z,23.30
2018-09-10T01:09:48.067Z,23.28
2018-09-10T01:10:19.651Z,23.27
2018-09-10T01:10:51.230Z,23.26
2018-09-10T01:11:22.817Z,23.27
2018-09-10T01:11:54.403Z,23.26
2018-09-10T01:12:25.984Z,23.24
2018-09-10T01:12:57.621Z,23.27
2018-09-10T01:13:29.217Z,23.27
2018-09-10T01:14:00.789Z,23.30
2018-09-10T01:14:32.382Z,23.33
2018-09-10T01:15:03.953Z,23.35
2018-09-10T01:15:35.550Z,23.36
2018-09-10T01:16:07.156Z,23.34
2018-09-10T01:16:38.736Z,23.34
2018-09-10T01:17:10.350Z,23.35
2018-09-10T01:17:41.935Z,23.31
2018-09-10T01:18:13.538Z,23.33
2018-09-10T01:18:45.191Z,23.34
2018-09-10T01:19:16.836Z,23.34
2018-09-10T01:19:48.409Z,23.34
2018-09-10T01:20:20.287Z,23.34
2018-09-10T01:20:52.065Z,23.33
2018-09-10T01:21:23.879Z,23.32
2018-09-10T01:21:55.449Z,23.32
2018-09-10T01:22:27.041Z,23.31
2018-09-10T01:22:58.627Z,23.31
2018-09-10T01:23:30.201Z,23.31
2018-09-10T01:24:01.794Z,23.29
2018-09-10T01:24:33.366Z,23.30
2018-09-10T01:25:04.965Z,23.30
2018-09-10T01:25:36.570Z,23.29
2018-09-10T01:26:08.319Z,23.30
2018-09-10T01:26:40.245Z,23.28
2018-09-10T01:27:12.072Z,23.29
2018-09-10T01:27:43.733Z,23.29
2018-09-10T01:28:15.301Z,23.29
2018-09-10T01:28:46.888Z,23.27
2018-09-10T01:29:18.475Z,23.27
2018-09-10T01:29:50.055Z,23.25
2018-09-10T01:30:21.643Z,23.23
2018-09-10T01:30:53.271Z,23.23
2018-09-10T01:31:24.838Z,23.23
2018-09-10T01:31:56.428Z,23.21
2018-09-10T01:32:28.024Z,23.19
2018-09-10T01:32:59.643Z,23.19
2018-09-10T01:33:31.235Z,23.17
2018-09-10T01:34:02.819Z,23.18
2018-09-10T01:34:49.296Z,23.17
2018-09-10T01:35:20.889Z,23.15
2018-09-10T01:35:52.844Z,23.15
2018-09-10T01:36:24.615Z,23.14
2018-09-10T01:36:56.213Z,23.14
2018-09-10T01:37:27.799Z,23.12
2018-09-10T01:37:59.397Z,23.12
2018-09-10T01:38:30.980Z,23.12
2018-09-10T01:39:02.570Z,23.12
2018-09-10T01:39:34.151Z,23.11
2018-09-10T01:40:05.738Z,23.12
2018-09-10T01:40:37.359Z,23.14
2018-09-10T01:41:08.947Z,23.18
2018-09-10T01:41:40.561Z,23.20
2018-09-10T01:42:12.154Z,23.23
2018-09-10T01:42:43.857Z,23.25
2018-09-10T01:43:15.435Z,23.25
2018-09-10T01:43:47.033Z,23.26
2018-09-10T01:44:18.639Z,23.28
2018-09-10T01:44:50.233Z,23.28
2018-09-10T01:45:21.845Z,23.28
2018-09-10T01:45:53.430Z,23.28
2018-09-10T01:46:25.002Z,23.28
2018-09-10T01:46:56.595Z,23.28
2018-09-10T01:47:28.223Z,23.28
2018-09-10T01:47:59.807Z,23.29
2018-09-10T01:48:31.402Z,23.29
2018-09-10T01:49:03.001Z,23.28
2018-09-10T01:49:34.601Z,23.28
2018-09-10T01:50:06.198Z,23.28
2018-09-10T01:50:37.823Z,23.28
2018-09-10T01:51:09.430Z,23.28
2018-09-10T01:51:41.020Z,23.28
2018-09-10T01:52:12.618Z,23.28
2018-09-10T01:52:44.243Z,23.27
2018-09-10T01:53:15.837Z,23.27
2018-09-10T01:53:47.411Z,23.25
2018-09-10T01:54:18.994Z,23.25
2018-09-10T01:54:50.619Z,23.23
2018-09-10T01:55:22.203Z,23.23
2018-09-10T01:55:53.844Z,23.24
2018-09-10T01:56:25.445Z,23.24
2018-09-10T01:56:57.042Z,23.24
2018-09-10T01:57:28.617Z,23.23
2018-09-10T01:58:00.201Z,23.25
2018-09-10T01:58:31.787Z,23.24
2018-09-10T01:59:03.386Z,23.24
2018-09-10T01:59:35.029Z,23.22
2018-09-10T02:00:06.615Z,23.20
2018-09-10T02:00:38.213Z,23.18
2018-09-10T02:01:09.811Z,23.16
2018-09-10T02:01:41.417Z,23.13
2018-09-10T02:02:13.018Z,23.12
2018-09-10T02:02:44.621Z,23.10
2018-09-10T02:03:16.215Z,23.08
2018-09-10T02:03:47.814Z,23.07
2018-09-10T02:04:19.405Z,23.06
2018-09-10T02:04:51.026Z,23.05
2018-09-10T02:05:22.631Z,23.03
2018-09-10T02:05:54.229Z,23.03
2018-09-10T02:06:25.815Z,23.03
2018-09-10T02:06:57.385Z,23.03
2018-09-10T02:07:28.968Z,23.01
2018-09-10T02:08:00.551Z,23.00
2018-09-10T02:08:32.154Z,23.00
2018-09-10T02:09:03.749Z,22.99
2018-09-10T02:09:35.329Z,23.00
2018-09-10T02:10:07.091Z,23.02
2018-09-10T02:10:38.675Z,23.06
2018-09-10T02:11:10.251Z,23.08
2018-09-10T02:11:41.817Z,23.08
2018-09-10T02:12:13.400Z,23.10
2018-09-10T02:12:44.987Z,23.09
2018-09-10T02:13:16.612Z,23.09
2018-09-10T02:13:48.209Z,23.07
2018-09-10T02:14:19.795Z,23.06
2018-09-10T02:14:51.368Z,23.05
2018-09-10T02:15:22.981Z,23.04
2018-09-10T02:15:54.611Z,23.03
2018-09-10T02:16:26.209Z,23.01
2018-09-10T02:16:57.804Z,23.01
2018-09-10T02:17:29.392Z,22.99
2018-09-10T02:18:00.980Z,22.98
2018-09-10T02:18:32.554Z,22.97
2018-09-10T02:19:04.132Z,22.97
2018-09-10T02:19:35.724Z,22.98
2018-09-10T02:20:07.327Z,23.02
2018-09-10T02:20:38.901Z,22.86
2018-09-10T02:21:10.486Z,23.07
2018-09-10T02:21:42.116Z,23.09
2018-09-10T02:22:13.709Z,23.11
2018-09-10T02:22:45.309Z,23.13
2018-09-10T02:23:16.906Z,23.15
2018-09-10T02:23:48.500Z,23.17
2018-09-10T02:24:20.097Z,23.18
2018-09-10T02:24:51.678Z,23.10
2018-09-10T02:25:23.245Z,23.18
2018-09-10T02:25:54.828Z,23.18
2018-09-10T02:26:26.414Z,23.18
2018-09-10T02:26:58.046Z,23.18
2018-09-10T02:27:29.743Z,23.18
2018-09-10T02:28:01.274Z,23.18
2018-09-10T02:28:32.856Z,23.17
2018-09-10T02:29:04.478Z,23.17
2018-09-10T02:29:36.065Z,23.16
2018-09-10T02:30:07.655Z,23.16
2018-09-10T02:30:39.239Z,23.16
2018-09-10T02:31:10.835Z,23.16
2018-09-10T02:31:42.430Z,23.15
2018-09-10T02:32:14.056Z,23.14
2018-09-10T02:32:45.633Z,23.14
2018-09-10T02:33:17.236Z,23.14
2018-09-10T02:33:48.829Z,23.12
2018-09-10T02:34:20.434Z,23.11
2018-09-10T02:34:52.037Z,23.12
2018-09-10T02:35:23.637Z,23.11
2018-09-10T02:35:55.230Z,23.10
2018-09-10T02:36:26.823Z,23.10
2018-09-10T02:36:58.447Z,23.10
2018-09-10T02:37:30.028Z,23.10
2018-09-10T02:38:01.612Z,23.09
2018-09-10T02:38:33.205Z,23.08
2018-09-10T02:39:04.800Z,23.08
2018-09-10T02:39:36.379Z,23.09
2018-09-10T02:40:07.968Z,23.09
2018-09-10T02:40:39.562Z,23.12
2018-09-10T02:41:11.144Z,23.20
2018-09-10T02:41:42.740Z,23.30
2018-09-10T02:42:14.314Z,23.37
2018-09-10T02:42:45.912Z,23.42
2018-09-10T02:43:17.543Z,23.33
2018-09-10T02:43:49.167Z,23.25
2018-09-10T02:44:20.756Z,23.19
2018-09-10T02:44:52.347Z,23.15
2018-09-10T02:45:23.918Z,23.09
2018-09-10T02:45:55.514Z,23.06
2018-09-10T02:46:27.100Z,23.01
2018-09-10T02:46:58.687Z,22.98
2018-09-10T02:47:30.257Z,22.94
2018-09-10T02:48:01.874Z,22.93
2018-09-10T02:48:33.449Z,22.91
2018-09-10T02:49:05.042Z,22.88
2018-09-10T02:49:36.637Z,22.86
2018-09-10T02:50:08.264Z,22.83
2018-09-10T02:50:39.852Z,22.82
2018-09-10T02:51:11.432Z,22.84
2018-09-10T02:51:43.010Z,22.89
2018-09-10T02:52:14.600Z,22.94
2018-09-10T02:52:46.193Z,22.97
2018-09-10T02:53:17.779Z,22.95
2018-09-10T02:53:49.375Z,22.96
2018-09-10T02:54:20.979Z,22.94
2018-09-10T02:54:52.615Z,22.92
2018-09-10T02:55:24.200Z,22.87
2018-09-10T02:55:55.783Z,22.85
2018-09-10T02:56:27.377Z,22.82
2018-09-10T02:56:58.949Z,22.80
2018-09-10T02:57:30.518Z,22.78
2018-09-10T02:58:02.099Z,22.78
2018-09-10T02:58:33.698Z,22.80
2018-09-10T02:59:05.294Z,22.83
2018-09-10T02:59:36.896Z,22.81
2018-09-10T03:00:08.519Z,22.79
2018-09-10T03:00:40.090Z,22.77
2018-09-10T03:01:11.675Z,22.71
2018-09-10T03:01:43.263Z,22.68
2018-09-10T03:02:14.848Z,22.66
2018-09-10T03:02:46.449Z,22.66
2018-09-10T03:03:18.029Z,22.66
2018-09-10T03:03:49.633Z,22.53
2018-09-10T03:04:21.234Z,22.72
2018-09-10T03:04:52.820Z,22.80
2018-09-10T03:05:24.452Z,22.80
2018-09-10T03:05:56.044Z,22.80
2018-09-10T03:06:27.650Z,22.77
2018-09-10T03:06:59.585Z,22.75
2018-09-10T03:07:31.177Z,22.72
2018-09-10T03:08:02.767Z,22.69
2018-09-10T03:08:34.366Z,22.67
2018-09-10T03:09:05.952Z,22.64
2018-09-10T03:09:37.539Z,22.62
2018-09-10T03:10:09.126Z,22.60
2018-09-10T03:10:40.716Z,22.59
2018-09-10T03:11:12.317Z,22.57
2018-09-10T03:11:43.922Z,22.56
2018-09-10T03:12:15.520Z,22.55
2018-09-10T03:12:47.117Z,22.54
2018-09-10T03:13:18.702Z,22.52
2018-09-10T03:13:50.282Z,22.52
2018-09-10T03:14:21.890Z,22.50
2018-09-10T03:14:53.488Z,22.49
2018-09-10T03:15:25.117Z,22.49
2018-09-10T03:15:56.731Z,22.49
2018-09-10T03:16:28.329Z,22.48
2018-09-10T03:16:59.925Z,22.47
2018-09-10T03:17:31.530Z,22.45
2018-09-10T03:18:03.231Z,22.46
2018-09-10T03:18:34.737Z,22.45
2018-09-10T03:19:06.315Z,22.45
2018-09-10T03:19:37.909Z,22.45
2018-09-10T03:20:09.502Z,22.43
2018-09-10T03:20:41.131Z,22.43
2018-09-10T03:21:12.720Z,22.42
2018-09-10T03:21:44.348Z,22.41
2018-09-10T03:22:15.941Z,22.42
2018-09-10T03:22:47.527Z,22.40
2018-09-10T03:23:19.126Z,22.41
2018-09-10T03:23:50.729Z,22.39
2018-09-10T03:24:22.302Z,22.40
2018-09-10T03:24:53.892Z,22.39
2018-09-10T03:25:25.476Z,22.38
2018-09-10T03:25:57.073Z,22.38
2018-09-10T03:26:28.659Z,22.38
2018-09-10T03:27:00.283Z,22.38
2018-09-10T03:27:31.877Z,22.37
2018-09-10T03:28:03.462Z,22.37
2018-09-10T03:28:35.062Z,22.37
2018-09-10T03:29:06.633Z,22.35
2018-09-10T03:29:38.230Z,22.35
2018-09-10T03:30:09.825Z,22.34
2018-09-10T03:30:41.413Z,22.33
2018-09-10T03:31:13.017Z,22.33
2018-09-10T03:31:44.647Z,22.32
2018-09-10T03:32:16.232Z,22.32
2018-09-10T03:32:47.819Z,22.31
2018-09-10T03:33:19.399Z,22.31
2018-09-10T03:33:51.001Z,22.31
2018-09-10T03:34:22.645Z,22.31
2018-09-10T03:34:54.239Z,22.31
2018-09-10T03:35:25.827Z,22.30
2018-09-10T03:35:57.412Z,22.30
2018-09-10T03:36:28.996Z,22.28
2018-09-10T03:37:00.624Z,22.29
2018-09-10T03:37:32.221Z,22.27
2018-09-10T03:38:03.797Z,22.27
2018-09-10T03:38:35.399Z,22.26
2018-09-10T03:39:07.035Z,22.26
2018-09-10T03:39:38.645Z,22.25
2018-09-10T03:40:10.237Z,22.25
2018-09-10T03:40:41.842Z,22.25
2018-09-10T03:41:13.447Z,22.25
2018-09-10T03:41:45.532Z,22.25
2018-09-10T03:42:17.461Z,22.23
2018-09-10T03:42:49.049Z,22.23
2018-09-10T03:43:20.649Z,22.23
2018-09-10T03:43:52.250Z,22.22
2018-09-10T03:44:23.845Z,22.22
2018-09-10T03:44:55.446Z,22.22
2018-09-10T03:45:27.031Z,22.22
2018-09-10T03:45:58.622Z,22.04
2018-09-10T03:46:30.213Z,22.21
2018-09-10T03:47:01.849Z,22.21
2018-09-10T03:47:33.423Z,22.21
2018-09-10T03:48:05.055Z,22.21
2018-09-10T03:48:36.640Z,22.20
2018-09-10T03:49:08.224Z,22.19
2018-09-10T03:49:39.830Z,22.18
2018-09-10T03:50:11.410Z,22.18
2018-09-10T03:50:43.290Z,22.18
2018-09-10T03:51:15.225Z,22.17
2018-09-10T03:51:46.830Z,22.18
2018-09-10T03:52:18.434Z,22.18
2018-09-10T03:52:50.019Z,22.18
2018-09-10T03:53:21.643Z,22.17
2018-09-10T03:53:53.301Z,22.17
2018-09-10T03:54:24.897Z,22.17
2018-09-10T03:54:56.523Z,22.17
2018-09-10T03:55:28.117Z,22.16
2018-09-10T03:55:59.699Z,22.16
2018-09-10T03:56:31.292Z,22.15
2018-09-10T03:57:02.889Z,22.15
2018-09-10T03:57:34.472Z,22.15
2018-09-10T03:58:06.065Z,22.14
2018-09-10T03:58:37.709Z,22.12
2018-09-10T03:59:09.311Z,22.10
2018-09-10T03:59:40.900Z,22.12
2018-09-10T04:00:12.484Z,22.11
2018-09-10T04:00:44.086Z,22.12
2018-09-10T04:01:15.675Z,22.12
2018-09-10T04:01:47.280Z,22.09
2018-09-10T04:02:18.874Z,22.11
2018-09-10T04:02:50.473Z,22.10
2018-09-10T04:03:22.060Z,22.09
2018-09-10T04:03:53.673Z,22.09
2018-09-10T04:04:25.267Z,22.09
2018-09-10T04:04:56.870Z,22.08
2018-09-10T04:05:28.473Z,22.06
2018-09-10T04:06:00.082Z,22.07
2018-09-10T04:06:31.676Z,22.06
2018-09-10T04:07:03.259Z,22.05
2018-09-10T04:07:34.843Z,22.06
2018-09-10T04:08:06.580Z,22.05
2018-09-10T04:08:38.236Z,22.05
2018-09-10T04:09:09.834Z,22.05
2018-09-10T04:09:41.462Z,22.05
2018-09-10T04:10:13.114Z,22.05
2018-09-10T04:10:44.704Z,22.05
2018-09-10T04:11:16.290Z,22.05
2018-09-10T04:11:47.875Z,22.06
2018-09-10T04:12:19.469Z,22.06
2018-09-10T04:12:51.073Z,22.07
2018-09-10T04:13:22.677Z,22.08
2018-09-10T04:13:54.259Z,22.09
2018-09-10T04:14:25.853Z,22.08
2018-09-10T04:14:57.446Z,22.08
2018-09-10T04:15:29.082Z,22.07
2018-09-10T04:16:00.668Z,22.06
2018-09-10T04:16:32.257Z,22.05
2018-09-10T04:17:03.869Z,22.05
2018-09-10T04:17:35.469Z,22.05
2018-09-10T04:18:07.069Z,22.05
2018-09-10T04:18:38.642Z,22.05
2018-09-10T04:19:10.241Z,22.05
2018-09-10T04:19:41.873Z,22.03
2018-09-10T04:20:13.473Z,22.03
2018-09-10T04:20:45.103Z,22.02
2018-09-10T04:21:16.698Z,22.02
2018-09-10T04:21:48.294Z,22.01
2018-09-10T04:22:19.888Z,22.01
2018-09-10T04:22:51.465Z,22.01
2018-09-10T04:23:23.050Z,22.00
2018-09-10T04:23:54.639Z,22.00
2018-09-10T04:24:26.228Z,21.99
2018-09-10T04:24:57.824Z,21.99
2018-09-10T04:25:29.469Z,21.99
2018-09-10T04:26:01.138Z,22.00
2018-09-10T04:26:32.689Z,21.98
2018-09-10T04:27:04.289Z,21.99
2018-09-10T04:27:35.878Z,21.98
2018-09-10T04:28:07.473Z,21.98
2018-09-10T04:28:39.059Z,21.98
2018-09-10T04:29:10.644Z,21.96
2018-09-10T04:29:42.238Z,21.97
2018-09-10T04:30:13.827Z,21.97
2018-09-10T04:30:45.459Z,21.97
2018-09-10T04:31:17.038Z,21.96
2018-09-10T04:31:48.623Z,21.95
2018-09-10T04:32:20.209Z,21.94
2018-09-10T04:32:51.793Z,21.95
2018-09-10T04:33:23.371Z,21.95
2018-09-10T04:33:54.958Z,21.94
2018-09-10T04:34:26.543Z,21.93
2018-09-10T04:34:58.127Z,21.93
2018-09-10T04:35:29.715Z,21.92
2018-09-10T04:36:01.398Z,21.92
2018-09-10T04:36:32.995Z,21.93
2018-09-10T04:37:04.589Z,21.92
2018-09-10T04:37:36.175Z,21.92
2018-09-10T04:38:07.769Z,21.92
2018-09-10T04:38:39.355Z,21.92
2018-09-10T04:39:10.949Z,21.92
2018-09-10T04:39:42.535Z,21.93
2018-09-10T04:40:14.120Z,21.93
2018-09-10T04:40:45.726Z,21.93
2018-09-10T04:41:17.363Z,21.93
2018-09-10T04:41:48.973Z,21.92
2018-09-10T04:42:20.631Z,21.92
2018-09-10T04:42:52.226Z,21.91
2018-09-10T04:43:23.829Z,21.90
2018-09-10T04:43:55.432Z,21.90
2018-09-10T04:44:27.035Z,21.89
2018-09-10T04:44:58.623Z,21.90
2018-09-10T04:45:30.208Z,21.89
2018-09-10T04:46:01.809Z,21.88
2018-09-10T04:46:33.436Z,21.86
2018-09-10T04:47:05.040Z,21.85
2018-09-10T04:47:36.641Z,21.86
2018-09-10T04:48:08.214Z,21.86
2018-09-10T04:48:39.807Z,21.86
2018-09-10T04:49:11.454Z,21.87
2018-09-10T04:49:43.619Z,21.87
2018-09-10T04:50:15.371Z,21.87
2018-09-10T04:50:46.961Z,21.86
2018-09-10T04:51:18.557Z,21.86
2018-09-10T04:51:50.140Z,21.85
2018-09-10T04:52:21.738Z,21.85
2018-09-10T04:52:53.328Z,21.85
2018-09-10T04:53:24.929Z,21.84
2018-09-10T04:53:56.525Z,21.85
2018-09-10T04:54:28.108Z,21.85
2018-09-10T04:54:59.689Z,21.84
2018-09-10T04:55:31.272Z,21.84
2018-09-10T04:56:02.868Z,21.83
2018-09-10T04:56:34.452Z,21.83
2018-09-10T04:57:06.044Z,21.83
2018-09-10T04:57:37.629Z,21.83
2018-09-10T04:58:09.305Z,21.83
2018-09-10T04:58:40.922Z,21.82
2018-09-10T04:59:12.527Z,21.82
2018-09-10T04:59:44.165Z,21.82
2018-09-10T05:00:15.764Z,21.83
2018-09-10T05:00:47.362Z,21.83
2018-09-10T05:01:18.958Z,21.83
2018-09-10T05:01:50.611Z,21.82
2018-09-10T05:02:22.457Z,21.82
2018-09-10T05:02:54.080Z,21.83
2018-09-10T05:03:25.679Z,21.82
2018-09-10T05:03:57.305Z,21.82
2018-09-10T05:04:28.883Z,21.82
2018-09-10T05:05:00.478Z,21.82
2018-09-10T05:05:32.073Z,21.82
2018-09-10T05:06:03.659Z,21.82
2018-09-10T05:06:35.257Z,21.83
2018-09-10T05:07:06.844Z,21.81
2018-09-10T05:07:38.444Z,21.81
2018-09-10T05:08:10.031Z,21.80
2018-09-10T05:08:41.629Z,21.79
2018-09-10T05:09:13.256Z,21.79
2018-09-10T05:09:44.902Z,21.78
2018-09-10T05:10:16.510Z,21.78
2018-09-10T05:10:48.100Z,21.77
2018-09-10T05:11:19.710Z,21.79
2018-09-10T05:11:51.296Z,21.78
2018-09-10T05:12:22.880Z,21.77
2018-09-10T05:12:54.476Z,21.78
2018-09-10T05:13:26.067Z,21.77
2018-09-10T05:13:57.670Z,21.76
2018-09-10T05:14:29.278Z,21.77
2018-09-10T05:15:00.908Z,21.77
2018-09-10T05:15:32.490Z,21.78
2018-09-10T05:16:04.127Z,21.78
2018-09-10T05:16:35.712Z,21.79
2018-09-10T05:17:07.287Z,21.78
2018-09-10T05:17:38.872Z,21.79
2018-09-10T05:18:10.461Z,21.78
2018-09-10T05:18:42.054Z,21.77
2018-09-10T05:19:13.639Z,21.79
2018-09-10T05:19:45.213Z,21.79
2018-09-10T05:20:16.867Z,21.78
2018-09-10T05:20:48.483Z,21.78
2018-09-10T05:21:20.126Z,21.78
2018-09-10T05:21:51.729Z,21.78
2018-09-10T05:22:23.327Z,21.78
2018-09-10T05:22:54.926Z,21.78
2018-09-10T05:23:26.498Z,21.78
2018-09-10T05:23:58.107Z,21.79
2018-09-10T05:24:29.701Z,21.79
2018-09-10T05:25:01.292Z,21.80
2018-09-10T05:25:32.879Z,21.79
2018-09-10T05:26:04.538Z,21.80
2018-09-10T05:26:36.107Z,21.80
2018-09-10T05:27:07.744Z,21.80
2018-09-10T05:27:39.347Z,21.78
2018-09-10T05:28:10.975Z,21.79
2018-09-10T05:28:42.542Z,21.79
2018-09-10T05:29:14.128Z,21.80
2018-09-10T05:29:45.702Z,21.79
2018-09-10T05:30:17.307Z,21.80
2018-09-10T05:30:48.897Z,21.80
2018-09-10T05:31:20.483Z,21.80
2018-09-10T05:31:52.065Z,21.81
2018-09-10T05:32:23.710Z,21.82
2018-09-10T05:32:55.314Z,21.81
2018-09-10T05:33:26.900Z,21.82
2018-09-10T05:33:58.553Z,21.82
2018-09-10T05:34:30.139Z,21.81
2018-09-10T05:35:01.727Z,21.82
2018-09-10T05:35:33.325Z,21.81
2018-09-10T05:36:04.925Z,21.82
2018-09-10T05:36:36.529Z,21.81
2018-09-10T05:37:08.116Z,21.81
2018-09-10T05:37:39.709Z,21.82
2018-09-10T05:38:11.310Z,21.82
2018-09-10T05:38:42.903Z,21.83
2018-09-10T05:39:14.488Z,21.83
2018-09-10T05:39:46.054Z,21.82
2018-09-10T05:40:17.653Z,21.83
2018-09-10T05:40:49.253Z,21.82
2018-09-10T05:41:20.849Z,21.82
2018-09-10T05:41:52.455Z,21.81
2018-09-10T05:42:24.038Z,21.83
2018-09-10T05:42:55.634Z,21.84
2018-09-10T05:43:27.234Z,21.83
2018-09-10T05:43:58.839Z,21.83
2018-09-10T05:44:30.482Z,21.84
2018-09-10T05:45:02.067Z,21.83
2018-09-10T05:45:33.652Z,21.82
2018-09-10T05:46:05.249Z,21.82
2018-09-10T05:46:36.849Z,21.82
2018-09-10T05:47:08.477Z,21.82
2018-09-10T05:47:40.093Z,21.83
2018-09-10T05:48:11.672Z,21.82
2018-09-10T05:48:43.266Z,21.83
2018-09-10T05:49:14.869Z,21.83
2018-09-10T05:49:46.470Z,21.83
2018-09-10T05:50:18.055Z,21.83
2018-09-10T05:50:49.662Z,21.85
2018-09-10T05:51:21.261Z,21.84
2018-09-10T05:51:52.850Z,21.84
2018-09-10T05:52:24.464Z,21.84
2018-09-10T05:52:56.052Z,21.84
2018-09-10T05:53:27.627Z,21.84
2018-09-10T05:53:59.212Z,21.84
2018-09-10T05:54:30.814Z,21.84
2018-09-10T05:55:02.460Z,21.85
2018-09-10T05:55:34.106Z,21.85
2018-09-10T05:56:05.659Z,21.85
2018-09-10T05:56:37.243Z,21.86
2018-09-10T05:57:08.828Z,21.85
2018-09-10T05:57:40.432Z,21.84
2018-09-10T05:58:12.078Z,21.85
2018-09-10T05:58:43.667Z,21.85
2018-09-10T05:59:15.261Z,21.85
2018-09-10T05:59:46.886Z,21.85
2018-09-10T06:00:18.486Z,21.85
2018-09-10T06:00:50.271Z,21.85
2018-09-10T06:01:21.861Z,21.85
2018-09-10T06:01:53.448Z,21.86
2018-09-10T06:02:25.041Z,21.85
2018-09-10T06:02:56.642Z,21.86
2018-09-10T06:03:28.228Z,21.85
2018-09-10T06:03:59.826Z,21.85
2018-09-10T06:04:31.401Z,21.86
2018-09-10T06:05:03.003Z,21.86
2018-09-10T06:05:34.631Z,21.86
2018-09-10T06:06:06.228Z,21.87
2018-09-10T06:06:37.828Z,21.87
2018-09-10T06:07:09.430Z,21.87
2018-09-10T06:07:41.015Z,21.87
2018-09-10T06:08:12.617Z,21.87
2018-09-10T06:08:44.223Z,21.86
2018-09-10T06:09:15.823Z,21.86
2018-09-10T06:09:47.452Z,21.85
2018-09-10T06:10:19.085Z,21.87
2018-09-10T06:10:50.662Z,21.86
2018-09-10T06:11:22.265Z,21.87
2018-09-10T06:11:53.864Z,21.86
2018-09-10T06:12:25.492Z,21.86
2018-09-10T06:12:57.075Z,21.86
2018-09-10T06:13:28.678Z,21.86
2018-09-10T06:14:00.282Z,21.86
2018-09-10T06:14:31.871Z,21.87
2018-09-10T06:15:03.474Z,21.87
2018-09-10T06:15:35.060Z,21.87
2018-09-10T06:16:06.666Z,21.88
2018-09-10T06:16:38.271Z,21.87
2018-09-10T06:17:09.920Z,21.88
2018-09-10T06:17:41.493Z,21.88
2018-09-10T06:18:13.095Z,21.88
2018-09-10T06:18:44.684Z,21.88
2018-09-10T06:19:16.271Z,21.88
2018-09-10T06:19:47.868Z,21.88
2018-09-10T06:20:19.464Z,21.89
2018-09-10T06:20:51.058Z,21.88
2018-09-10T06:21:22.657Z,21.89
2018-09-10T06:21:54.269Z,21.89
2018-09-10T06:22:25.902Z,21.89
2018-09-10T06:22:57.645Z,21.89
2018-09-10T06:23:29.415Z,21.88
2018-09-10T06:24:01.009Z,21.89
2018-09-10T06:24:32.607Z,21.89
2018-09-10T06:25:04.205Z,21.90
2018-09-10T06:25:35.809Z,21.89
2018-09-10T06:26:07.409Z,21.90
2018-09-10T06:26:39.010Z,21.90
2018-09-10T06:27:10.606Z,21.91
2018-09-10T06:27:42.232Z,21.91
2018-09-10T06:28:13.842Z,21.92
2018-09-10T06:28:45.427Z,21.91
2018-09-10T06:29:17.022Z,21.92
2018-09-10T06:29:48.612Z,21.92
2018-09-10T06:30:20.212Z,21.93
2018-09-10T06:30:51.811Z,21.93
2018-09-10T06:31:23.395Z,21.93
2018-09-10T06:31:54.990Z,21.93
2018-09-10T06:32:26.629Z,21.92
2018-09-10T06:32:58.271Z,21.92
2018-09-10T06:33:29.860Z,21.92
2018-09-10T06:34:01.501Z,21.92
2018-09-10T06:34:33.089Z,21.91
2018-09-10T06:35:04.679Z,21.92
2018-09-10T06:35:36.275Z,21.92
2018-09-10T06:36:07.865Z,21.92
2018-09-10T06:36:39.441Z,21.91
2018-09-10T06:37:11.046Z,21.93
2018-09-10T06:37:42.637Z,21.93
2018-09-10T06:38:14.263Z,21.93
2018-09-10T06:38:45.891Z,21.94
2018-09-10T06:39:17.493Z,21.93
2018-09-10T06:39:49.079Z,21.93
2018-09-10T06:40:20.663Z,21.93
2018-09-10T06:40:52.260Z,21.93
2018-09-10T06:41:23.862Z,21.93
2018-09-10T06:41:55.465Z,21.94
2018-09-10T06:42:27.054Z,21.94
2018-09-10T06:42:58.643Z,21.95
2018-09-10T06:43:30.218Z,21.94
2018-09-10T06:44:01.804Z,21.94
2018-09-10T06:44:33.405Z,21.95
2018-09-10T06:45:05.001Z,21.95
2018-09-10T06:45:36.597Z,21.95
2018-09-10T06:46:08.188Z,21.95
2018-09-10T06:46:39.829Z,21.95
2018-09-10T06:47:11.429Z,21.96